MDT,Max TemperatureF,Mean TemperatureF,Min TemperatureF,Max Dew PointF,MeanDew PointF,Min DewpointF,Max Humidity, Mean Humidity, Min Humidity, Max Sea Level PressureIn, Mean Sea Level PressureIn, Min Sea Level PressureIn, Max VisibilityMiles, Mean VisibilityMiles, Min VisibilityMiles, Max Wind SpeedMPH, Mean Wind SpeedMPH, Max Gust SpeedMPH,PrecipitationIn, CloudCover, Events, WindDirDegrees
2013-8-1,81,73,64,64,56,42,81,54,26,30.15,29.94,29.83,10,10,10,30,11,33,0.33,4,Rain-Thunderstorm,86
2013-8-2,91,77,62,60,56,50,84,55,26,29.99,29.89,29.78,10,10,10,13,6,15,0.00,0,,104
2013-8-3,95,82,69,56,50,42,53,35,17,29.96,29.88,29.81,10,10,10,21,6,24,0.00,0,,124
2013-8-4,94,83,71,55,48,41,49,34,18,30.11,29.91,29.82,10,10,10,28,9,38,T,2,Rain-Thunderstorm,107
2013-8-5,92,80,68,64,53,45,70,46,21,30.07,29.92,29.81,10,9,1,46,6,55,0.32,1,Rain-Thunderstorm,110
2013-8-6,93,80,67,57,49,35,61,38,14,30.00,29.85,29.75,10,10,10,31,7,39,T,0,,108
2013-8-7,88,76,63,57,50,39,78,49,20,30.15,29.89,29.79,10,10,7,31,7,37,0.02,2,Rain,129
2013-8-8,88,76,64,55,48,35,73,45,16,29.97,29.89,29.81,10,10,10,29,7,37,0.00,1,,108
2013-8-9,90,77,64,52,44,35,52,35,17,30.08,29.92,29.83,10,10,9,37,11,44,0.03,1,Rain-Thunderstorm,99
2013-8-10,84,75,65,46,42,37,48,34,20,30.13,30.00,29.89,10,10,9,33,11,41,T,1,Rain,137
2013-8-11,90,75,60,48,43,37,60,39,17,30.10,30.01,29.89,10,10,10,21,6,25,0.00,0,,122
2013-8-12,90,75,60,49,44,38,52,35,18,30.14,29.97,29.90,10,10,10,23,4,29,T,2,Rain-Thunderstorm,74
2013-8-13,92,74,55,48,37,21,66,37,8,30.06,29.98,29.89,10,10,10,12,4,18,0.00,0,,238
2013-8-14,96,82,67,39,30,20,32,20,7,29.99,29.90,29.81,10,10,10,14,6,18,0.00,0,,109
2013-8-15,97,82,66,35,30,21,27,17,7,29.96,29.89,29.83,10,10,10,17,6,30,0.00,0,,134
2013-8-16,99,81,62,38,29,24,30,19,8,29.98,29.90,29.84,10,10,10,16,5,23,0.00,0,,255
2013-8-17,93,79,64,47,37,28,31,23,14,29.99,29.91,29.87,10,10,8,33,7,43,0.00,0,,207
2013-8-18,95,77,59,45,41,35,46,30,14,30.01,29.92,29.83,10,10,10,13,2,16,0.00,0,,319
2013-8-19,99,84,68,46,43,38,38,26,13,29.95,29.86,29.77,10,10,10,21,6,25,0.00,0,,203
2013-8-20,95,83,70,47,44,42,38,28,17,29.89,29.83,29.77,10,10,10,18,4,23,T,1,,231
2013-8-21,95,83,71,49,45,38,44,30,15,29.95,29.88,29.81,10,10,10,18,7,25,T,1,,128
2013-8-22,88,79,69,50,47,44,44,34,24,29.99,29.92,29.84,10,10,10,22,6,29,T,2,,282
2013-8-23,89,76,62,58,49,43,61,43,24,30.01,29.89,29.78,10,10,7,33,5,58,0.02,3,Rain-Thunderstorm,279
2013-8-24,88,74,60,60,51,42,93,57,21,30.12,29.93,29.84,10,10,8,26,6,35,0.04,3,Rain,261
2013-8-25,70,66,62,64,62,59,93,82,70,30.23,30.09,30.01,10,9,0,13,4,15,0.34,7,Fog-Rain,96
2013-8-26,79,72,64,66,63,59,93,73,52,30.24,30.09,30.01,10,10,9,14,3,16,0.06,7,Rain,308
2013-8-27,83,74,64,65,63,59,100,75,49,30.20,30.05,29.92,10,10,10,13,3,18,0.02,3,Rain-Thunderstorm,300
2013-8-28,91,77,62,63,56,46,93,58,23,30.00,29.94,29.88,10,10,10,15,3,20,0.00,0,,285
2013-8-29,95,78,61,55,49,40,78,47,15,30.03,29.96,29.91,10,10,10,13,3,17,0.00,0,,280
2013-8-30,98,83,68,63,50,45,57,37,16,30.11,29.94,29.82,10,10,8,18,4,22,0.03,1,Rain-Thunderstorm,136
2013-8-31,94,81,68,60,53,46,70,45,20,29.94,29.86,29.78,10,10,10,16,5,20,T,2,,278